Pouco nublado (1-2 oitavos)
http://www.flightutilities.com

QR Code
SBPL 172100Z 15008KT 9999 FEW035 28/13 Q1017

Localidade: SBPL
PETROLINA - BRAZIL (PE)
Latitude: 09°21'54"S - Longitude: 040°33'59"W.
Declinação magnética: 22,6°W
Amanhecer: 08:59 UTC
Por do sol: 20:38 UTC
Boletim do: 17, as 21:00 UTC
terça-feira 17 julho 2018 21:00 horário de Greenwich (Zulu).
Vento: direção = 150 graus, velocidade: 8 nôs (15 km/h) (4 m/s).
Pista 13, comprimento 9843 pés, altitude 1249 pés: Vento ao través 5 KT dereita - Vento eixo pista 6 KT frontal.
Pista 31, comprimento 9843 pés, altitude 1259 pés: Vento ao través 5 KT esquerda - Vento eixo pista 6 KT de cauda.
Visibilidade horizontal minima: 10 km ou mais.
Nuvens: Pouco nublado (1-2 oitavos), a 3500 pés acima do Aeródromo (1067 metros).
Temperatura: 28 graus Celsius (82 Fahrenheit). Ponto de orvalho: 13 graus Celsius (55 Fahrenheit). Umidade relativa 39,68 %.
QNH (pressão ao nível do mar): 1017 hPa (30,03 polegadas).
0:26
Confiabilidade do Metar - Tempo de emissão em horas e minutos
NOAA
Visual Flight Rules
8 KT
Vento
28/13
Temperatura / Ponto de orvalho
>10Km
Visibilidade horizontal minima
3500
Pouco nublado (1-2 oitavos)
1017
Pressão ao nível do mar
22,6°W
Declinação magnética
08:59 Z
Amanhecer
20:38 Z
Por do sol
Mapa
Ver no Google Maps